Terminal Aerodrome Forecast
Issued by NWS Upton, NY

Current Version | Previous Version | Text Only | Print | Product List | Glossary On
Versions: 1 2 3 4 5 6 7 8 9 10 11 12 13 14 15 16 17 18 19 20 21 22 23 24 25 26 27 28 29
000
FTUS41 KOKX 282000 AAA
TAFEWR
TAF AMD
KEWR 282033Z 2821/2924 31014G21KT P6SM FEW040
     FM282200 31008KT P6SM SKC
     FM290600 28005KT P6SM SCT120 SCT250
     FM291400 23005KT P6SM SCT070 BKN100
     FM291800 19006KT P6SM FEW040 BKN070=

USA.gov is the U.S. government's official web portal to all federal, state and local government web resources and services.